Time;durP1;ratioP1;P1;durP2;ratioP2;P2;SDS_P1;SDS_P2;PMS_P1;PMS_P2;Temp;Humidity;BMP_temperature;BMP_pressure;BME280_temperature;BME280_humidity;BME280_pressure;Samples;Min_cycle;Max_cycle;Signal;HPM_P1;HPM_P2
2021/12/31 00:00:07;;;;;;;9.95;2.92;;;;;;;23.67;42.85;101744.56;5121825;27;20473;-69
2021/12/31 00:02:32;;;;;;;6.07;2.38;;;;;;;23.46;42.54;101755.38;5112122;27;20022;-69
2021/12/31 00:04:57;;;;;;;9.73;2.88;;;;;;;23.29;42.64;101747.38;5112638;27;20059;-69
2021/12/31 00:07:23;;;;;;;5.65;2.40;;;;;;;22.66;45.91;101753.88;5111602;27;20135;-69
2021/12/31 00:09:48;;;;;;;5.68;2.50;;;;;;;24.02;42.20;101752.63;5112154;27;20118;-69
2021/12/31 00:12:13;;;;;;;8.50;2.85;;;;;;;23.55;42.79;101743.41;5113589;27;20034;-69
2021/12/31 00:14:39;;;;;;;7.10;2.55;;;;;;;22.63;45.14;101748.69;5131986;27;20462;-69
2021/12/31 00:17:06;;;;;;;4.00;2.90;;;;;;;23.49;42.93;101743.69;5128095;27;20049;-69
2021/12/31 00:19:36;;;;;;;5.43;2.45;;;;;;;22.92;44.04;101743.81;5094137;28;20570;-69
2021/12/31 00:22:15;;;;;;;7.20;2.40;;;;;;;23.76;42.60;101746.78;5114436;28;20072;-69
2021/12/31 00:24:41;;;;;;;5.63;2.67;;;;;;;24.15;42.61;101743.00;5113114;28;20333;-69
2021/12/31 00:27:06;;;;;;;4.85;2.40;;;;;;;23.68;42.55;101740.97;5105939;28;21333;-69
2021/12/31 00:29:31;;;;;;;6.13;2.38;;;;;;;23.54;42.40;101747.00;5093449;28;20073;-69
2021/12/31 00:31:57;;;;;;;4.70;2.67;;;;;;;22.80;44.94;101746.09;5101072;28;20076;-69
2021/12/31 00:34:22;;;;;;;6.22;2.47;;;;;;;24.30;41.87;101748.47;5112405;28;20391;-69
2021/12/31 00:36:47;;;;;;;3.78;2.10;;;;;;;23.99;41.95;101736.75;5123637;28;20023;-69
2021/12/31 00:39:14;;;;;;;6.20;2.50;;;;;;;23.69;41.72;101742.69;5130915;28;20063;-69
2021/12/31 00:41:40;;;;;;;7.97;2.55;;;;;;;23.40;43.29;101739.69;5131947;28;20035;-68
2021/12/31 00:44:06;;;;;;;4.22;2.17;;;;;;;23.92;42.35;101746.00;5099393;28;20080;-69
2021/12/31 00:46:32;;;;;;;9.32;2.83;;;;;;;23.90;42.68;101753.25;5114196;28;20031;-69
2021/12/31 00:48:58;;;;;;;4.72;2.55;;;;;;;23.83;42.97;101744.66;5109146;28;20027;-69
2021/12/31 00:51:24;;;;;;;4.68;2.15;;;;;;;24.39;40.89;101745.31;5130789;28;20375;-69
2021/12/31 00:53:50;;;;;;;5.82;2.50;;;;;;;24.40;41.32;101736.34;5112084;28;20019;-69
2021/12/31 00:56:15;;;;;;;9.82;2.38;;;;;;;23.24;43.00;101738.72;5113042;28;20034;-68
2021/12/31 00:58:40;;;;;;;6.63;1.95;;;;;;;24.10;41.64;101741.50;5130479;28;20367;-69
2021/12/31 01:01:09;;;;;;;3.40;2.03;;;;;;;25.37;38.72;101730.94;5130196;28;20103;-69
2021/12/31 01:03:34;;;;;;;7.68;1.75;;;;;;;23.11;43.32;101733.97;5126647;28;20016;-70
2021/12/31 01:05:59;;;;;;;8.15;3.20;;;;;;;24.22;41.34;101732.84;5097541;28;20155;-69
2021/12/31 01:08:25;;;;;;;7.82;1.95;;;;;;;23.86;41.43;101747.16;5130746;28;20023;-69
2021/12/31 01:10:50;;;;;;;11.57;2.20;;;;;;;23.57;42.61;101746.84;5112467;28;20474;-69
2021/12/31 01:13:26;;;;;;;4.05;1.83;;;;;;;24.82;40.19;101742.97;5114425;27;20383;-69
2021/12/31 01:15:57;;;;;;;5.75;1.65;;;;;;;24.11;41.04;101746.78;5114945;27;20027;-69
2021/12/31 01:19:43;;;;;;;3.42;2.08;;;;;;;24.47;40.27;101743.09;5134730;27;20139;-69
2021/12/31 01:21:08;;;;;;;3.45;1.70;;;;;;;24.15;41.20;101744.81;5133863;27;20087;-69
2021/12/31 01:23:35;;;;;;;7.05;2.22;;;;;;;23.10;42.86;101744.72;5116171;27;20035;-69
2021/12/31 01:26:00;;;;;;;9.00;2.10;;;;;;;24.28;41.32;101748.56;5112282;27;20384;-69
2021/12/31 01:28:25;;;;;;;9.50;2.20;;;;;;;24.90;39.70;101739.88;5103544;27;20027;-69
2021/12/31 01:30:51;;;;;;;5.55;1.88;;;;;;;23.62;41.81;101757.31;5115750;27;20023;-68
2021/12/31 01:33:16;;;;;;;3.20;1.88;;;;;;;24.08;41.35;101762.09;5114147;27;20027;-69
2021/12/31 01:35:41;;;;;;;4.68;1.92;;;;;;;24.20;40.64;101751.63;5134984;27;20023;-69
2021/12/31 01:38:07;;;;;;;5.38;1.85;;;;;;;24.52;40.44;101762.41;5114842;27;20035;-68
2021/12/31 01:40:32;;;;;;;3.10;1.85;;;;;;;24.32;40.90;101767.97;5134196;27;20023;-69
2021/12/31 01:42:58;;;;;;;2.40;1.52;;;;;;;24.08;41.36;101762.94;5115575;27;20406;-69
2021/12/31 01:45:28;;;;;;;2.65;1.55;;;;;;;25.33;38.73;101763.34;5096676;27;20032;-69
2021/12/31 01:48:08;;;;;;;6.35;2.40;;;;;;;23.19;42.85;101758.50;5118624;27;20038;-69
2021/12/31 01:50:34;;;;;;;6.47;1.98;;;;;;;24.19;40.91;101755.25;5116302;27;20027;-69
2021/12/31 01:53:00;;;;;;;4.50;1.52;;;;;;;24.77;39.93;101755.75;5115404;27;20076;-69
2021/12/31 01:55:31;;;;;;;6.60;1.88;;;;;;;24.83;39.77;101757.22;5094976;28;20028;-69
2021/12/31 01:57:57;;;;;;;4.18;1.70;;;;;;;24.38;40.52;101760.47;5099597;27;20034;-69
2021/12/31 02:00:23;;;;;;;7.50;2.10;;;;;;;24.73;39.70;101764.88;5115709;27;20038;-69
2021/12/31 02:02:48;;;;;;;7.10;1.73;;;;;;;24.82;39.64;101759.00;5114708;27;20031;-69
2021/12/31 02:05:14;;;;;;;2.75;1.60;;;;;;;24.15;40.00;101758.16;5117330;27;20034;-72
2021/12/31 02:07:40;;;;;;;3.65;1.73;;;;;;;23.65;42.32;101754.47;5096408;27;20020;-69
2021/12/31 02:10:07;;;;;;;9.07;1.52;;;;;;;24.62;40.01;101751.22;5132520;27;20035;-69
2021/12/31 02:12:32;;;;;;;8.32;1.60;;;;;;;23.88;41.64;101756.84;5115768;27;20031;-69
2021/12/31 02:14:59;;;;;;;3.97;1.80;;;;;;;23.93;41.27;101753.94;5114807;27;20418;-69
2021/12/31 02:17:24;;;;;;;4.13;1.63;;;;;;;25.08;39.16;101747.81;5114678;27;20119;-69
2021/12/31 02:19:56;;;;;;;4.43;1.75;;;;;;;24.21;40.87;101748.00;5114008;27;20466;-69
2021/12/31 02:22:26;;;;;;;6.05;1.85;;;;;;;23.27;42.77;101751.91;5114859;27;20099;-69
2021/12/31 02:24:52;;;;;;;5.82;2.10;;;;;;;23.14;43.06;101749.84;5097262;28;20373;-69
2021/12/31 02:27:17;;;;;;;4.22;1.67;;;;;;;23.78;42.06;101747.56;5096294;27;20122;-68
2021/12/31 02:29:42;;;;;;;1.88;1.50;;;;;;;24.30;40.63;101756.47;5114421;27;20346;-69
2021/12/31 02:32:08;;;;;;;3.75;1.42;;;;;;;23.96;41.33;101758.25;5098813;28;20024;-67
2021/12/31 02:34:33;;;;;;;6.40;1.73;;;;;;;24.26;41.17;101760.25;5130441;27;20103;-68
2021/12/31 02:36:58;;;;;;;6.68;1.52;;;;;;;23.35;42.00;101752.41;5114547;27;20113;-68
2021/12/31 02:39:24;;;;;;;2.25;1.60;;;;;;;23.27;42.11;101749.25;5114956;27;20053;-67
2021/12/31 02:41:49;;;;;;;5.25;1.63;;;;;;;23.70;41.30;101747.09;5130797;27;20035;-67
2021/12/31 02:44:15;;;;;;;3.97;1.63;;;;;;;24.81;39.73;101751.97;5113646;27;20043;-68
2021/12/31 02:46:40;;;;;;;3.05;1.52;;;;;;;24.89;39.23;101754.19;5133608;27;20027;-68
2021/12/31 02:49:06;;;;;;;4.57;1.85;;;;;;;23.32;42.40;101755.22;5114387;27;20107;-67
2021/12/31 02:51:31;;;;;;;4.78;1.83;;;;;;;24.36;40.12;101750.81;5123648;27;20024;-68
2021/12/31 02:53:58;;;;;;;4.78;1.63;;;;;;;22.85;43.10;101748.56;5112219;27;20034;-68
2021/12/31 02:56:24;;;;;;;2.28;1.50;;;;;;;24.01;41.51;101748.22;5114345;27;20474;-67
2021/12/31 02:58:51;;;;;;;2.25;1.45;;;;;;;23.80;41.32;101758.16;5113476;27;20034;-68
2021/12/31 03:01:17;;;;;;;5.75;1.70;;;;;;;23.83;41.67;101753.53;5127964;27;20445;-68
2021/12/31 03:03:45;;;;;;;3.42;1.70;;;;;;;23.28;42.17;101748.31;5111359;27;20030;-68
2021/12/31 03:06:11;;;;;;;2.33;1.30;;;;;;;24.24;40.96;101756.81;5131570;27;20038;-68
2021/12/31 03:08:44;;;;;;;2.50;1.20;;;;;;;24.98;38.80;101752.81;5114791;27;20023;-67
2021/12/31 03:11:11;;;;;;;5.70;1.92;;;;;;;24.80;39.44;101747.56;5113365;27;20150;-67
2021/12/31 03:13:38;;;;;;;4.18;1.90;;;;;;;24.12;40.73;101750.31;5132023;27;20023;-68
2021/12/31 03:16:04;;;;;;;6.63;1.50;;;;;;;23.18;41.99;101740.75;5132282;27;20114;-68
2021/12/31 03:18:30;;;;;;;4.20;1.35;;;;;;;23.92;40.47;101741.56;5097060;28;20039;-68
2021/12/31 03:21:05;;;;;;;5.53;1.83;;;;;;;23.25;42.56;101733.31;5095941;27;20491;-68
2021/12/31 03:23:31;;;;;;;4.18;1.45;;;;;;;23.54;41.64;101731.84;5114233;27;20047;-68
2021/12/31 03:25:56;;;;;;;5.00;1.50;;;;;;;24.74;39.86;101726.50;5131479;27;20075;-68
2021/12/31 03:28:22;;;;;;;3.95;1.30;;;;;;;23.92;40.65;101716.66;5111863;27;20483;-68
2021/12/31 03:30:48;;;;;;;3.83;1.73;;;;;;;24.03;40.20;101711.63;5113610;27;20039;-68
2021/12/31 03:33:15;;;;;;;6.15;1.85;;;;;;;23.95;40.64;101724.50;5098960;28;20035;-68
2021/12/31 03:35:40;;;;;;;4.43;1.92;;;;;;;24.12;40.00;101727.13;5102370;27;20117;-68
2021/12/31 03:38:06;;;;;;;4.10;1.38;;;;;;;23.70;40.80;101725.75;5113421;27;20106;-68
2021/12/31 03:40:32;;;;;;;2.97;1.17;;;;;;;24.28;39.79;101726.34;5113577;27;20471;-68
2021/12/31 03:42:57;;;;;;;7.18;1.50;;;;;;;23.99;40.43;101732.28;5128630;27;20058;-68
2021/12/31 03:45:23;;;;;;;4.30;1.60;;;;;;;23.52;40.68;101728.41;5113881;27;20088;-68
2021/12/31 03:47:48;;;;;;;5.88;1.30;;;;;;;23.23;42.62;101731.66;5112537;27;20113;-68
2021/12/31 03:50:14;;;;;;;5.28;1.35;;;;;;;23.86;40.72;101732.03;5113922;27;20046;-69
2021/12/31 03:52:40;;;;;;;6.45;1.40;;;;;;;22.93;42.69;101732.19;5109635;27;20027;-68
2021/12/31 03:55:07;;;;;;;2.58;1.60;;;;;;;23.32;41.47;101731.22;5131122;27;20026;-68
2021/12/31 03:57:32;;;;;;;4.57;1.15;;;;;;;24.58;39.65;101738.94;5113087;27;20054;-68
2021/12/31 03:59:58;;;;;;;1.75;1.52;;;;;;;23.58;41.41;101731.72;5113354;27;20517;-68
2021/12/31 04:02:23;;;;;;;3.05;1.65;;;;;;;24.66;39.02;101734.06;5123466;27;20398;-68
2021/12/31 04:04:48;;;;;;;5.90;1.50;;;;;;;24.83;38.39;101733.16;5113496;27;20076;-70
2021/12/31 04:07:14;;;;;;;4.22;1.30;;;;;;;23.55;40.26;101733.59;5112980;27;20474;-69
2021/12/31 04:09:39;;;;;;;2.78;1.20;;;;;;;24.09;40.07;101743.31;5112837;27;20034;-68
2021/12/31 04:12:05;;;;;;;4.43;1.60;;;;;;;24.27;39.72;101735.28;5105670;28;20023;-68
2021/12/31 04:14:30;;;;;;;5.82;1.70;;;;;;;24.11;39.09;101736.13;5093172;28;20047;-68
2021/12/31 04:16:55;;;;;;;2.90;1.30;;;;;;;24.28;39.23;101742.38;5100281;28;20023;-68
2021/12/31 04:19:21;;;;;;;4.90;1.40;;;;;;;23.94;40.06;101730.78;5131684;27;20126;-68
2021/12/31 04:21:49;;;;;;;4.53;1.23;;;;;;;23.35;41.40;101728.38;5123591;28;20507;-68
2021/12/31 04:24:26;;;;;;;2.58;1.45;;;;;;;24.04;39.79;101724.00;5092511;28;20034;-68
2021/12/31 04:26:51;;;;;;;4.32;1.50;;;;;;;24.52;38.26;101708.97;5120846;28;20387;-68
2021/12/31 04:29:17;;;;;;;3.47;1.30;;;;;;;23.23;41.15;101715.66;5130942;28;20042;-68
2021/12/31 04:31:42;;;;;;;6.85;1.75;;;;;;;22.65;42.54;101723.69;5112654;28;20516;-68
2021/12/31 04:34:08;;;;;;;5.10;1.50;;;;;;;23.68;41.37;101724.97;5113043;28;20019;-68
2021/12/31 04:36:33;;;;;;;5.38;1.85;;;;;;;24.44;38.67;101708.53;5130317;28;20139;-68
2021/12/31 04:38:59;;;;;;;4.43;1.40;;;;;;;24.05;39.52;101709.72;5112931;28;20145;-68
2021/12/31 04:41:24;;;;;;;6.03;2.03;;;;;;;24.25;39.63;101715.78;5112387;28;20093;-68
2021/12/31 04:43:50;;;;;;;4.55;1.20;;;;;;;22.71;41.94;101714.56;5093968;28;20122;-68
2021/12/31 04:46:15;;;;;;;4.53;1.75;;;;;;;24.40;38.99;101709.66;5096594;27;20018;-68
2021/12/31 04:48:40;;;;;;;5.15;1.75;;;;;;;24.18;38.88;101693.91;5098067;28;20043;-68
2021/12/31 04:51:05;;;;;;;2.80;1.15;;;;;;;24.31;39.90;101691.44;5096794;27;20038;-68
2021/12/31 04:53:31;;;;;;;4.60;1.40;;;;;;;23.54;39.88;101678.50;5135139;27;20019;-68
2021/12/31 04:55:56;;;;;;;4.97;1.55;;;;;;;23.87;39.74;101679.50;5116691;27;20015;-68
2021/12/31 04:58:22;;;;;;;3.17;1.40;;;;;;;24.42;38.54;101675.69;5115495;27;20111;-68
2021/12/31 05:00:47;;;;;;;4.35;1.48;;;;;;;23.13;41.32;101669.94;5116780;27;20440;-69
2021/12/31 05:03:14;;;;;;;5.72;1.70;;;;;;;23.91;40.31;101673.09;5106305;28;20406;-68
2021/12/31 05:05:39;;;;;;;2.88;1.40;;;;;;;22.55;43.04;101673.59;5096011;28;20596;-68
2021/12/31 05:08:05;;;;;;;2.83;1.63;;;;;;;23.33;41.30;101663.59;5117026;27;20055;-68
2021/12/31 05:10:32;;;;;;;10.02;2.00;;;;;;;22.29;42.96;101665.00;5100789;27;20398;-68
2021/12/31 05:13:03;;;;;;;4.60;1.50;;;;;;;22.50;42.51;101664.03;5115549;27;20034;-68
2021/12/31 05:15:33;;;;;;;4.40;1.45;;;;;;;22.75;42.16;101662.84;5135572;27;20387;-68
2021/12/31 05:17:58;;;;;;;4.15;1.65;;;;;;;24.29;39.11;101663.94;5114931;27;20423;-68
2021/12/31 05:20:24;;;;;;;3.97;1.40;;;;;;;23.10;41.92;101668.25;5135167;27;20035;-68
2021/12/31 05:22:49;;;;;;;3.70;1.50;;;;;;;22.35;42.75;101659.41;5127690;27;20030;-67
2021/12/31 05:25:16;;;;;;;5.22;1.30;;;;;;;23.51;40.57;101668.00;5118310;27;20035;-68
2021/12/31 05:27:42;;;;;;;4.38;1.40;;;;;;;22.33;42.43;101674.56;5116533;27;20030;-68
2021/12/31 05:30:07;;;;;;;7.85;2.00;;;;;;;22.53;41.79;101685.19;5115893;27;20031;-68
2021/12/31 05:32:33;;;;;;;3.33;1.60;;;;;;;22.62;42.37;101688.34;5114793;27;20475;-68
2021/12/31 05:34:58;;;;;;;3.95;1.50;;;;;;;22.95;41.26;101682.34;5116351;27;20023;-68
2021/12/31 05:37:24;;;;;;;3.38;1.48;;;;;;;23.21;40.96;101681.94;5110736;28;20034;-68
2021/12/31 05:39:49;;;;;;;4.43;1.60;;;;;;;22.50;42.69;101685.34;5095309;28;20050;-68
2021/12/31 05:42:15;;;;;;;2.75;1.55;;;;;;;22.31;42.09;101679.09;5114929;27;20027;-68
2021/12/31 05:44:40;;;;;;;3.90;1.60;;;;;;;22.40;42.41;101678.69;5116578;27;20031;-68
2021/12/31 05:47:06;;;;;;;5.93;1.92;;;;;;;22.85;41.25;101674.78;5113774;27;20038;-68
2021/12/31 05:49:31;;;;;;;1.75;1.45;;;;;;;22.87;41.13;101672.03;5114538;27;20395;-68
2021/12/31 05:51:57;;;;;;;5.53;1.80;;;;;;;22.50;41.42;101673.81;5100005;27;20027;-68
2021/12/31 05:54:22;;;;;;;5.43;1.30;;;;;;;22.43;42.31;101689.19;5115463;27;20049;-68
2021/12/31 05:56:49;;;;;;;8.13;1.70;;;;;;;22.70;41.06;101688.84;5113979;27;20027;-68
2021/12/31 05:59:14;;;;;;;3.55;1.80;;;;;;;22.74;40.92;101698.44;5111568;27;20031;-68
2021/12/31 06:01:40;;;;;;;2.40;1.30;;;;;;;22.49;42.47;101688.94;5132979;27;20467;-68
2021/12/31 06:04:06;;;;;;;3.42;1.30;;;;;;;22.37;42.31;101697.50;5115378;27;20027;-68
2021/12/31 06:06:31;;;;;;;5.90;1.70;;;;;;;22.38;42.20;101696.56;5115716;27;20505;-68
2021/12/31 06:08:56;;;;;;;2.63;1.10;;;;;;;22.41;41.99;101701.75;5101666;28;20027;-68
2021/12/31 06:11:22;;;;;;;2.78;1.17;;;;;;;23.37;40.24;101697.19;5095170;28;20498;-68
2021/12/31 06:13:54;;;;;;;1.55;1.23;;;;;;;22.38;42.33;101698.34;5113436;27;20027;-68
2021/12/31 06:16:20;;;;;;;6.05;1.95;;;;;;;22.72;40.92;101673.63;5133621;27;20027;-68
2021/12/31 06:18:46;;;;;;;3.22;1.75;;;;;;;22.78;40.81;101667.16;5111959;27;20035;-68
2021/12/31 06:21:11;;;;;;;4.03;1.48;;;;;;;21.67;43.24;101671.25;5113854;27;20030;-68
2021/12/31 06:23:37;;;;;;;2.50;1.27;;;;;;;23.04;40.85;101658.75;5114697;27;20038;-67
2021/12/31 06:26:02;;;;;;;2.78;1.50;;;;;;;22.03;43.00;101656.38;5114951;27;20045;-68
2021/12/31 06:28:28;;;;;;;2.60;1.60;;;;;;;22.54;41.57;101662.06;5114350;27;20030;-68
2021/12/31 06:30:55;;;;;;;2.13;1.55;;;;;;;21.31;43.49;101660.38;5115153;27;20021;-68
2021/12/31 06:33:21;;;;;;;2.85;1.38;;;;;;;21.52;43.80;101651.50;5110523;27;20038;-68
2021/12/31 06:35:46;;;;;;;2.28;1.20;;;;;;;22.19;42.27;101638.78;5114496;27;20019;-68
2021/12/31 06:38:12;;;;;;;5.85;2.47;;;;;;;22.35;41.74;101640.75;5113560;27;20031;-68
2021/12/31 06:40:38;;;;;;;7.05;1.55;;;;;;;21.83;43.29;101647.50;5115261;27;20031;-68
2021/12/31 06:43:03;;;;;;;1.93;1.60;;;;;;;22.06;43.24;101632.28;5132023;27;20058;-68
2021/12/31 06:45:30;;;;;;;6.57;1.83;;;;;;;21.79;42.99;101631.72;5114908;27;20171;-68
2021/12/31 06:47:55;;;;;;;2.03;1.35;;;;;;;22.47;41.64;101637.50;5130694;27;20034;-68
2021/12/31 06:50:21;;;;;;;4.25;1.80;;;;;;;21.49;43.54;101648.09;5132562;27;20027;-68
2021/12/31 06:52:46;;;;;;;3.33;1.67;;;;;;;21.19;44.65;101645.81;5114190;27;20103;-67
2021/12/31 06:55:12;;;;;;;2.57;1.77;;;;;;;21.11;44.76;101643.47;5132881;27;20144;-68
2021/12/31 06:57:37;;;;;;;3.80;1.80;;;;;;;21.60;42.76;101635.22;5113522;27;20049;-69
2021/12/31 07:00:05;;;;;;;4.30;1.92;;;;;;;22.47;41.21;101626.84;5109651;27;20054;-68
2021/12/31 07:02:31;;;;;;;4.90;1.83;;;;;;;20.63;46.08;101652.47;5114171;27;20503;-68
2021/12/31 07:04:56;;;;;;;4.40;1.98;;;;;;;21.28;44.11;101648.09;5113812;27;20051;-68
2021/12/31 07:07:21;;;;;;;7.43;1.83;;;;;;;21.97;42.70;101648.69;5132400;27;20566;-68
2021/12/31 07:09:47;;;;;;;2.27;1.63;;;;;;;20.76;45.21;101653.75;5095059;28;20084;-68
2021/12/31 07:12:13;;;;;;;5.93;1.90;;;;;;;22.32;41.62;101659.50;5127869;27;20031;-68
2021/12/31 07:14:38;;;;;;;5.57;2.10;;;;;;;21.22;43.82;101674.06;5114198;27;20019;-68
2021/12/31 07:17:04;;;;;;;3.63;2.17;;;;;;;21.50;43.77;101676.41;5113809;27;20092;-68
2021/12/31 07:19:29;;;;;;;1.73;1.60;;;;;;;21.65;43.23;101678.47;5112205;27;20511;-68
2021/12/31 07:21:55;;;;;;;5.80;1.80;;;;;;;21.99;42.42;101679.59;5113410;27;20031;-68
2021/12/31 07:24:20;;;;;;;5.47;1.60;;;;;;;20.91;44.00;101677.94;5113725;27;20019;-69
2021/12/31 07:26:45;;;;;;;6.50;1.60;;;;;;;21.46;43.28;101681.00;5113085;27;20029;-68
2021/12/31 07:29:10;;;;;;;3.53;1.60;;;;;;;20.45;45.72;101686.75;5111813;27;20071;-68
2021/12/31 07:31:36;;;;;;;4.73;1.70;;;;;;;20.29;45.97;101690.91;5112979;27;20118;-69
2021/12/31 07:34:01;;;;;;;3.23;1.73;;;;;;;22.19;42.19;101675.19;5131931;27;20023;-68
2021/12/31 07:36:27;;;;;;;9.68;3.08;;;;;;;21.93;42.14;101687.03;5131391;27;20390;-68
2021/12/31 07:39:00;;;;;;;4.87;2.00;;;;;;;21.67;43.18;101673.06;5113282;27;20456;-68
2021/12/31 07:41:26;;;;;;;3.60;1.53;;;;;;;21.22;44.15;101666.94;5113614;27;20076;-68
2021/12/31 07:43:51;;;;;;;3.70;1.60;;;;;;;21.77;42.54;101669.06;5112553;27;20019;-68
2021/12/31 07:46:17;;;;;;;5.07;1.70;;;;;;;22.50;41.61;101672.03;5112164;27;20035;-67
2021/12/31 07:48:42;;;;;;;3.20;1.70;;;;;;;21.94;43.09;101664.78;5113345;27;20110;-68
2021/12/31 07:51:07;;;;;;;2.30;1.55;;;;;;;21.00;44.75;101656.31;5112556;27;20376;-67
2021/12/31 07:53:32;;;;;;;2.87;1.77;;;;;;;21.94;42.59;101664.78;5131034;27;20050;-68
2021/12/31 07:55:58;;;;;;;2.57;1.87;;;;;;;21.11;45.15;101687.78;5127569;27;20066;-68
2021/12/31 07:58:24;;;;;;;2.92;1.63;;;;;;;21.48;42.94;101673.81;5113414;27;20126;-68
2021/12/31 08:00:50;;;;;;;4.47;1.50;;;;;;;21.65;42.89;101674.91;5109747;27;20113;-67
2021/12/31 08:03:15;;;;;;;5.82;1.92;;;;;;;22.04;42.43;101687.41;5096334;28;20023;-68
2021/12/31 08:05:41;;;;;;;3.72;1.45;;;;;;;22.24;42.22;101673.16;5126755;27;20036;-68
2021/12/31 08:08:06;;;;;;;5.53;1.83;;;;;;;21.52;43.47;101685.19;5100058;27;20027;-68
2021/12/31 08:10:33;;;;;;;2.80;1.73;;;;;;;22.31;41.19;101685.28;5113422;27;20042;-68
2021/12/31 08:13:00;;;;;;;4.57;1.67;;;;;;;21.39;44.30;101690.19;5111604;27;20069;-67
2021/12/31 08:15:26;;;;;;;3.33;1.73;;;;;;;21.76;42.48;101693.97;5124801;27;20111;-68
2021/12/31 08:17:54;;;;;;;7.63;2.20;;;;;;;22.23;41.84;101691.88;5112850;28;20130;-68
2021/12/31 08:20:20;;;;;;;5.73;1.90;;;;;;;22.02;41.87;101694.56;5096755;28;20478;-68
2021/12/31 08:22:45;;;;;;;3.27;1.70;;;;;;;22.59;41.30;101693.84;5129524;27;20127;-68
2021/12/31 08:25:11;;;;;;;5.20;1.90;;;;;;;22.31;41.41;101689.72;5107102;28;20114;-68
2021/12/31 08:27:36;;;;;;;5.80;1.90;;;;;;;21.61;42.71;101694.59;5112908;28;20081;-68
2021/12/31 08:30:02;;;;;;;3.73;1.90;;;;;;;22.60;41.04;101682.22;5112057;28;20454;-68
2021/12/31 08:32:27;;;;;;;7.43;1.87;;;;;;;23.56;38.89;101681.06;5132072;28;20019;-68
2021/12/31 08:34:53;;;;;;;2.93;1.73;;;;;;;23.58;38.95;101673.03;5110773;28;20038;-68
2021/12/31 08:37:18;;;;;;;4.45;1.58;;;;;;;22.60;41.06;101679.56;5112476;28;20039;-68
2021/12/31 08:39:43;;;;;;;2.05;1.70;;;;;;;22.70;40.66;101670.19;5130656;28;20027;-68
2021/12/31 08:42:09;;;;;;;2.88;1.40;;;;;;;23.22;39.50;101680.16;5112102;28;20110;-68
2021/12/31 08:44:34;;;;;;;1.87;1.40;;;;;;;22.71;40.28;101677.25;5131354;28;20031;-68
2021/12/31 08:47:00;;;;;;;3.53;1.77;;;;;;;21.45;43.69;101681.06;5129604;28;20140;-68
2021/12/31 08:49:25;;;;;;;3.57;1.80;;;;;;;21.94;41.69;101691.41;5102671;28;20050;-67
2021/12/31 08:51:51;;;;;;;5.65;1.70;;;;;;;21.39;43.41;101703.47;5106310;28;20517;-68
2021/12/31 08:54:16;;;;;;;4.05;1.30;;;;;;;21.49;42.58;101696.81;5112406;28;20015;-68
2021/12/31 08:56:43;;;;;;;2.17;1.20;;;;;;;21.70;42.50;101702.19;5128977;28;20080;-68
2021/12/31 08:59:09;;;;;;;6.85;1.80;;;;;;;22.67;40.69;101689.84;5110721;28;20126;-68
2021/12/31 09:01:34;;;;;;;5.37;2.27;;;;;;;23.23;39.37;101683.66;5130570;28;20031;-68
2021/12/31 09:04:00;;;;;;;5.55;2.22;;;;;;;22.52;40.75;101691.44;5129426;28;20033;-68
2021/12/31 09:06:25;;;;;;;3.45;1.83;;;;;;;20.97;44.53;101699.84;5112393;28;20420;-68
2021/12/31 09:08:50;;;;;;;5.13;2.60;;;;;;;22.40;41.49;101696.50;5110866;28;20019;-68
2021/12/31 09:11:16;;;;;;;6.97;1.67;;;;;;;22.33;41.02;101677.22;5130259;28;20023;-68
2021/12/31 09:13:42;;;;;;;3.95;1.63;;;;;;;23.63;38.65;101681.63;5113206;28;20031;-68
2021/12/31 09:16:11;;;;;;;11.50;2.95;;;;;;;22.05;41.50;101691.81;5112562;28;20030;-68
2021/12/31 09:18:36;;;;;;;4.38;2.72;;;;;;;22.55;40.85;101694.91;5112146;28;20047;-68
2021/12/31 09:21:03;;;;;;;3.95;2.50;;;;;;;21.59;43.44;101720.41;5111177;28;20391;-68
2021/12/31 09:23:28;;;;;;;7.35;2.70;;;;;;;22.82;40.74;101714.91;5112941;28;20042;-68
2021/12/31 09:25:55;;;;;;;2.97;2.10;;;;;;;22.50;40.92;101722.63;5112029;28;20027;-68
2021/12/31 09:28:21;;;;;;;6.28;2.92;;;;;;;22.23;41.66;101731.81;5131237;28;20023;-68
2021/12/31 09:30:46;;;;;;;3.47;2.45;;;;;;;22.54;41.21;101731.31;5126124;28;20028;-68
2021/12/31 09:33:12;;;;;;;3.92;1.70;;;;;;;22.41;41.21;101744.34;5110979;28;20108;-68
2021/12/31 09:35:39;;;;;;;4.43;2.80;;;;;;;22.87;40.48;101718.22;5123317;27;20019;-67
2021/12/31 09:38:08;;;;;;;3.55;1.77;;;;;;;22.10;41.81;101718.22;5134422;27;20080;-68
2021/12/31 09:40:35;;;;;;;2.42;1.80;;;;;;;23.09;39.52;101705.66;5116042;27;20114;-68
2021/12/31 09:43:12;;;;;;;7.00;3.20;;;;;;;22.41;41.20;101703.50;5115830;27;20058;-68
2021/12/31 09:45:39;;;;;;;8.48;3.75;;;;;;;23.62;39.07;101719.94;5126547;27;20075;-67
2021/12/31 09:48:15;;;;;;;3.97;2.50;;;;;;;21.65;42.19;101755.59;5122128;27;20062;-68
2021/12/31 09:50:44;;;;;;;4.10;1.85;;;;;;;22.04;42.80;101737.97;5115217;27;20023;-68
2021/12/31 09:53:11;;;;;;;4.63;1.98;;;;;;;21.05;43.92;101739.41;5112236;27;20382;-69
2021/12/31 09:55:51;;;;;;;2.83;1.85;;;;;;;22.33;42.59;101733.16;5113129;27;20026;-69
2021/12/31 09:58:17;;;;;;;4.22;1.88;;;;;;;22.39;41.06;101740.88;5115157;27;20031;-69
2021/12/31 10:00:45;;;;;;;4.13;2.27;;;;;;;22.01;42.62;101735.47;5131532;27;20023;-69
2021/12/31 10:03:16;;;;;;;4.47;2.25;;;;;;;22.23;41.99;101731.81;5115762;27;20042;-69
2021/12/31 10:05:44;;;;;;;7.97;2.15;;;;;;;22.91;40.65;101734.06;5114942;27;20031;-69
2021/12/31 10:08:15;;;;;;;3.83;1.97;;;;;;;23.28;39.44;101732.31;5114584;27;20023;-69
2021/12/31 10:10:40;;;;;;;4.70;2.05;;;;;;;21.47;43.47;101733.28;5129671;27;20035;-69
2021/12/31 10:13:08;;;;;;;5.80;2.10;;;;;;;22.62;41.11;101730.97;5113920;27;20447;-68
2021/12/31 10:15:39;;;;;;;6.13;2.90;;;;;;;22.96;40.83;101756.03;5113890;27;20042;-69
2021/12/31 10:18:12;;;;;;;4.57;2.73;;;;;;;21.91;42.82;101764.25;5132681;27;20047;-69
2021/12/31 10:20:51;;;;;;;10.48;2.67;;;;;;;22.81;40.99;101741.63;5131593;27;20015;-69
2021/12/31 10:23:19;;;;;;;5.90;2.00;;;;;;;22.46;41.34;101750.34;5112606;27;20031;-69
2021/12/31 10:25:44;;;;;;;4.70;2.17;;;;;;;22.11;41.46;101730.59;5132751;27;20031;-68
2021/12/31 10:28:12;;;;;;;4.57;2.03;;;;;;;21.12;44.06;101724.94;5131290;27;20030;-69
2021/12/31 10:30:38;;;;;;;7.13;4.50;;;;;;;22.09;41.61;101721.78;5130873;27;20034;-69
2021/12/31 10:33:04;;;;;;;6.25;2.53;;;;;;;22.20;41.73;101709.75;5127384;27;20042;-68
2021/12/31 10:35:43;;;;;;;8.73;2.55;;;;;;;23.50;39.58;101666.25;5096737;28;20015;-69
2021/12/31 10:38:12;;;;;;;6.47;2.50;;;;;;;22.42;41.00;101628.91;5125808;27;20383;-69
2021/12/31 10:40:43;;;;;;;5.65;2.72;;;;;;;21.90;43.22;101625.94;5101275;27;20023;-69
2021/12/31 10:43:21;;;;;;;4.03;2.38;;;;;;;23.41;39.00;101629.41;5131635;27;20082;-69
2021/12/31 10:45:59;;;;;;;5.53;2.28;;;;;;;22.17;42.03;101635.34;5126502;27;20023;-68
2021/12/31 10:49:02;;;;;;;4.55;2.50;;;;;;;23.53;39.48;101655.44;5096825;28;20035;-69
2021/12/31 10:51:41;;;;;;;4.25;2.03;;;;;;;22.41;41.61;101663.56;5065626;27;20116;-69
2021/12/31 10:54:27;;;;;;;6.32;2.00;;;;;;;22.61;41.52;101678.63;5131948;27;20019;-69
2021/12/31 10:56:52;;;;;;;7.55;1.98;;;;;;;21.63;42.94;101687.44;5111695;27;20635;-69
2021/12/31 10:59:18;;;;;;;4.43;2.00;;;;;;;22.05;42.31;101683.81;5114088;27;20098;-69
2021/12/31 11:01:43;;;;;;;11.52;7.38;;;;;;;22.52;41.79;101682.59;5113845;27;20036;-68
2021/12/31 11:04:10;;;;;;;6.10;2.67;;;;;;;21.98;42.17;101679.69;5092753;28;20123;-69
2021/12/31 11:06:37;;;;;;;5.57;1.73;;;;;;;21.56;43.84;101678.00;5104461;27;20071;-69
2021/12/31 11:09:06;;;;;;;6.38;2.55;;;;;;;22.96;40.52;101692.06;5111976;27;20041;-68
2021/12/31 11:11:31;;;;;;;2.88;1.95;;;;;;;22.30;41.86;101696.03;5099511;27;20394;-69
2021/12/31 11:13:57;;;;;;;6.65;3.00;;;;;;;23.80;38.57;101688.78;5094930;28;20032;-69
2021/12/31 11:16:23;;;;;;;4.65;2.33;;;;;;;22.24;41.42;101693.63;5105784;27;20190;-69
2021/12/31 11:18:49;;;;;;;8.82;4.28;;;;;;;22.73;40.82;101691.38;5112815;27;20051;-69
2021/12/31 11:21:15;;;;;;;6.00;3.25;;;;;;;22.99;40.28;101694.56;5110618;27;20034;-69